sensor_id;sensor_type;location;lat;lon;timestamp;P1;durP1;ratioP1;P2;durP2;ratioP2
22660;SDS011;11497;52.222;21.246;2022-08-03T00:02:16;26.88;;;18.83;;
22660;SDS011;11497;52.222;21.246;2022-08-03T00:04:44;27.30;;;18.42;;
22660;SDS011;11497;52.222;21.246;2022-08-03T00:07:13;24.33;;;18.48;;
22660;SDS011;11497;52.222;21.246;2022-08-03T00:09:41;23.95;;;18.67;;
22660;SDS011;11497;52.222;21.246;2022-08-03T00:12:09;23.92;;;18.05;;
22660;SDS011;11497;52.222;21.246;2022-08-03T00:14:37;21.67;;;18.08;;
22660;SDS011;11497;52.222;21.246;2022-08-03T00:17:04;26.00;;;19.23;;
22660;SDS011;11497;52.222;21.246;2022-08-03T00:19:33;23.85;;;19.08;;
22660;SDS011;11497;52.222;21.246;2022-08-03T00:22:00;21.85;;;17.08;;
22660;SDS011;11497;52.222;21.246;2022-08-03T00:24:28;21.10;;;17.73;;
22660;SDS011;11497;52.222;21.246;2022-08-03T00:26:56;19.83;;;16.90;;
22660;SDS011;11497;52.222;21.246;2022-08-03T00:29:24;24.52;;;16.63;;
22660;SDS011;11497;52.222;21.246;2022-08-03T00:31:52;19.08;;;17.08;;
22660;SDS011;11497;52.222;21.246;2022-08-03T00:34:26;27.15;;;17.45;;
22660;SDS011;11497;52.222;21.246;2022-08-03T00:37:14;22.80;;;16.52;;
22660;SDS011;11497;52.222;21.246;2022-08-03T00:39:42;22.45;;;17.35;;
22660;SDS011;11497;52.222;21.246;2022-08-03T00:42:11;25.60;;;17.92;;
22660;SDS011;11497;52.222;21.246;2022-08-03T00:44:40;23.27;;;18.15;;
22660;SDS011;11497;52.222;21.246;2022-08-03T00:47:10;26.55;;;18.02;;
22660;SDS011;11497;52.222;21.246;2022-08-03T00:49:38;22.92;;;18.10;;
22660;SDS011;11497;52.222;21.246;2022-08-03T00:52:07;26.45;;;18.05;;
22660;SDS011;11497;52.222;21.246;2022-08-03T00:54:36;21.83;;;18.38;;
22660;SDS011;11497;52.222;21.246;2022-08-03T00:57:05;22.05;;;18.42;;
22660;SDS011;11497;52.222;21.246;2022-08-03T00:59:33;19.80;;;17.02;;
22660;SDS011;11497;52.222;21.246;2022-08-03T01:02:01;24.33;;;17.35;;
22660;SDS011;11497;52.222;21.246;2022-08-03T01:04:28;23.73;;;17.65;;
22660;SDS011;11497;52.222;21.246;2022-08-03T01:06:59;19.67;;;16.80;;
22660;SDS011;11497;52.222;21.246;2022-08-03T01:15:41;21.33;;;16.13;;
22660;SDS011;11497;52.222;21.246;2022-08-03T01:20:52;21.75;;;16.80;;
22660;SDS011;11497;52.222;21.246;2022-08-03T01:32:20;24.23;;;17.27;;
22660;SDS011;11497;52.222;21.246;2022-08-03T01:38:06;20.92;;;15.90;;
22660;SDS011;11497;52.222;21.246;2022-08-03T01:40:43;20.52;;;16.23;;
22660;SDS011;11497;52.222;21.246;2022-08-03T01:43:15;24.40;;;16.95;;
22660;SDS011;11497;52.222;21.246;2022-08-03T01:46:06;21.85;;;16.48;;
22660;SDS011;11497;52.222;21.246;2022-08-03T01:48:36;19.08;;;16.13;;
22660;SDS011;11497;52.222;21.246;2022-08-03T01:51:07;19.10;;;16.08;;
22660;SDS011;11497;52.222;21.246;2022-08-03T01:53:38;21.23;;;15.13;;
22660;SDS011;11497;52.222;21.246;2022-08-03T01:56:09;20.48;;;15.82;;
22660;SDS011;11497;52.222;21.246;2022-08-03T01:58:39;20.63;;;15.38;;
22660;SDS011;11497;52.222;21.246;2022-08-03T02:01:09;17.52;;;15.65;;
22660;SDS011;11497;52.222;21.246;2022-08-03T02:03:40;20.67;;;16.27;;
22660;SDS011;11497;52.222;21.246;2022-08-03T02:06:27;19.48;;;16.15;;
22660;SDS011;11497;52.222;21.246;2022-08-03T02:09:19;21.73;;;15.77;;
22660;SDS011;11497;52.222;21.246;2022-08-03T02:11:48;18.40;;;15.60;;
22660;SDS011;11497;52.222;21.246;2022-08-03T02:14:18;20.38;;;16.45;;
22660;SDS011;11497;52.222;21.246;2022-08-03T02:16:48;21.20;;;15.50;;
22660;SDS011;11497;52.222;21.246;2022-08-03T02:19:16;18.33;;;15.38;;
22660;SDS011;11497;52.222;21.246;2022-08-03T02:21:45;21.20;;;16.27;;
22660;SDS011;11497;52.222;21.246;2022-08-03T02:24:27;18.95;;;15.57;;
22660;SDS011;11497;52.222;21.246;2022-08-03T02:26:55;18.48;;;15.88;;
22660;SDS011;11497;52.222;21.246;2022-08-03T02:29:25;21.80;;;16.58;;
22660;SDS011;11497;52.222;21.246;2022-08-03T02:32:08;23.98;;;16.80;;
22660;SDS011;11497;52.222;21.246;2022-08-03T02:34:40;18.38;;;16.23;;
22660;SDS011;11497;52.222;21.246;2022-08-03T02:37:11;21.17;;;15.60;;
22660;SDS011;11497;52.222;21.246;2022-08-03T02:39:40;19.90;;;16.02;;
22660;SDS011;11497;52.222;21.246;2022-08-03T02:42:09;22.80;;;15.35;;
22660;SDS011;11497;52.222;21.246;2022-08-03T02:44:40;19.38;;;15.20;;
22660;SDS011;11497;52.222;21.246;2022-08-03T02:47:13;21.42;;;15.93;;
22660;SDS011;11497;52.222;21.246;2022-08-03T02:49:47;19.97;;;16.63;;
22660;SDS011;11497;52.222;21.246;2022-08-03T02:52:22;20.10;;;16.40;;
22660;SDS011;11497;52.222;21.246;2022-08-03T02:54:54;22.02;;;16.58;;
22660;SDS011;11497;52.222;21.246;2022-08-03T02:57:25;22.38;;;16.02;;
22660;SDS011;11497;52.222;21.246;2022-08-03T02:59:56;19.67;;;15.65;;
22660;SDS011;11497;52.222;21.246;2022-08-03T03:02:25;20.55;;;16.15;;
22660;SDS011;11497;52.222;21.246;2022-08-03T03:04:54;24.70;;;15.98;;
22660;SDS011;11497;52.222;21.246;2022-08-03T03:07:43;22.67;;;16.27;;
22660;SDS011;11497;52.222;21.246;2022-08-03T03:10:18;22.98;;;16.50;;
22660;SDS011;11497;52.222;21.246;2022-08-03T03:12:52;21.85;;;17.08;;
22660;SDS011;11497;52.222;21.246;2022-08-03T03:15:26;23.20;;;16.70;;
22660;SDS011;11497;52.222;21.246;2022-08-03T03:17:55;23.35;;;16.77;;
22660;SDS011;11497;52.222;21.246;2022-08-03T03:20:25;20.88;;;15.77;;
22660;SDS011;11497;52.222;21.246;2022-08-03T03:22:57;23.02;;;16.25;;
22660;SDS011;11497;52.222;21.246;2022-08-03T03:25:29;22.20;;;16.98;;
22660;SDS011;11497;52.222;21.246;2022-08-03T03:27:59;23.40;;;16.33;;
22660;SDS011;11497;52.222;21.246;2022-08-03T03:30:28;21.75;;;16.45;;
22660;SDS011;11497;52.222;21.246;2022-08-03T03:32:57;18.30;;;16.08;;
22660;SDS011;11497;52.222;21.246;2022-08-03T03:35:25;21.13;;;17.60;;
22660;SDS011;11497;52.222;21.246;2022-08-03T03:37:54;21.58;;;17.20;;
22660;SDS011;11497;52.222;21.246;2022-08-03T03:40:22;21.40;;;17.08;;
22660;SDS011;11497;52.222;21.246;2022-08-03T03:42:50;19.45;;;16.92;;
22660;SDS011;11497;52.222;21.246;2022-08-03T03:45:18;20.45;;;16.38;;
22660;SDS011;11497;52.222;21.246;2022-08-03T03:47:47;20.95;;;17.05;;
22660;SDS011;11497;52.222;21.246;2022-08-03T03:50:16;20.48;;;16.05;;
22660;SDS011;11497;52.222;21.246;2022-08-03T03:52:44;20.05;;;16.23;;
22660;SDS011;11497;52.222;21.246;2022-08-03T03:55:16;18.40;;;15.50;;
22660;SDS011;11497;52.222;21.246;2022-08-03T03:57:44;23.67;;;16.33;;
22660;SDS011;11497;52.222;21.246;2022-08-03T04:00:12;19.92;;;17.30;;
22660;SDS011;11497;52.222;21.246;2022-08-03T04:02:42;20.00;;;16.92;;
22660;SDS011;11497;52.222;21.246;2022-08-03T04:05:11;19.60;;;16.50;;
22660;SDS011;11497;52.222;21.246;2022-08-03T04:08:05;17.90;;;16.05;;
22660;SDS011;11497;52.222;21.246;2022-08-03T04:13:44;17.37;;;15.47;;
22660;SDS011;11497;52.222;21.246;2022-08-03T04:16:30;19.85;;;15.80;;
22660;SDS011;11497;52.222;21.246;2022-08-03T04:19:10;17.60;;;15.50;;
22660;SDS011;11497;52.222;21.246;2022-08-03T04:21:50;20.00;;;16.05;;
22660;SDS011;11497;52.222;21.246;2022-08-03T04:26:52;17.05;;;14.27;;
22660;SDS011;11497;52.222;21.246;2022-08-03T04:29:21;19.50;;;15.18;;
22660;SDS011;11497;52.222;21.246;2022-08-03T04:31:52;18.27;;;14.93;;
22660;SDS011;11497;52.222;21.246;2022-08-03T04:34:22;17.27;;;14.95;;
22660;SDS011;11497;52.222;21.246;2022-08-03T04:36:51;18.23;;;15.20;;
22660;SDS011;11497;52.222;21.246;2022-08-03T04:39:23;16.88;;;13.90;;
22660;SDS011;11497;52.222;21.246;2022-08-03T04:41:53;16.67;;;14.27;;
22660;SDS011;11497;52.222;21.246;2022-08-03T04:44:35;15.32;;;13.73;;
22660;SDS011;11497;52.222;21.246;2022-08-03T04:47:08;20.40;;;14.60;;
22660;SDS011;11497;52.222;21.246;2022-08-03T04:49:36;16.02;;;14.13;;
22660;SDS011;11497;52.222;21.246;2022-08-03T04:52:08;16.20;;;13.45;;
22660;SDS011;11497;52.222;21.246;2022-08-03T04:54:44;19.80;;;13.38;;
22660;SDS011;11497;52.222;21.246;2022-08-03T04:57:16;17.58;;;13.23;;
22660;SDS011;11497;52.222;21.246;2022-08-03T04:59:52;15.52;;;11.80;;
22660;SDS011;11497;52.222;21.246;2022-08-03T05:02:27;14.52;;;11.00;;
22660;SDS011;11497;52.222;21.246;2022-08-03T05:04:57;15.98;;;11.13;;
22660;SDS011;11497;52.222;21.246;2022-08-03T05:07:25;11.77;;;10.15;;
22660;SDS011;11497;52.222;21.246;2022-08-03T05:10:02;13.88;;;10.00;;
22660;SDS011;11497;52.222;21.246;2022-08-03T05:12:43;14.57;;;9.60;;
22660;SDS011;11497;52.222;21.246;2022-08-03T05:15:11;8.80;;;7.88;;
22660;SDS011;11497;52.222;21.246;2022-08-03T05:17:39;10.30;;;8.48;;
22660;SDS011;11497;52.222;21.246;2022-08-03T05:20:08;14.93;;;9.18;;
22660;SDS011;11497;52.222;21.246;2022-08-03T05:22:37;11.63;;;8.93;;
22660;SDS011;11497;52.222;21.246;2022-08-03T05:25:04;10.50;;;9.02;;
22660;SDS011;11497;52.222;21.246;2022-08-03T05:27:32;12.00;;;8.93;;
22660;SDS011;11497;52.222;21.246;2022-08-03T05:30:01;9.57;;;8.57;;
22660;SDS011;11497;52.222;21.246;2022-08-03T05:32:49;9.60;;;8.60;;
22660;SDS011;11497;52.222;21.246;2022-08-03T05:35:17;10.18;;;9.10;;
22660;SDS011;11497;52.222;21.246;2022-08-03T05:38:04;10.00;;;8.48;;
22660;SDS011;11497;52.222;21.246;2022-08-03T05:40:34;13.02;;;9.70;;
22660;SDS011;11497;52.222;21.246;2022-08-03T05:43:02;11.10;;;9.88;;
22660;SDS011;11497;52.222;21.246;2022-08-03T05:45:30;12.85;;;10.13;;
22660;SDS011;11497;52.222;21.246;2022-08-03T05:47:58;11.63;;;9.65;;
22660;SDS011;11497;52.222;21.246;2022-08-03T05:50:25;15.40;;;9.32;;
22660;SDS011;11497;52.222;21.246;2022-08-03T05:52:56;9.80;;;8.88;;
22660;SDS011;11497;52.222;21.246;2022-08-03T05:55:24;11.95;;;8.52;;
22660;SDS011;11497;52.222;21.246;2022-08-03T05:57:52;11.45;;;9.07;;
22660;SDS011;11497;52.222;21.246;2022-08-03T06:00:22;10.73;;;9.63;;
22660;SDS011;11497;52.222;21.246;2022-08-03T06:02:51;10.75;;;9.65;;
22660;SDS011;11497;52.222;21.246;2022-08-03T06:05:19;13.48;;;9.95;;
22660;SDS011;11497;52.222;21.246;2022-08-03T06:07:47;11.82;;;10.00;;
22660;SDS011;11497;52.222;21.246;2022-08-03T06:10:14;15.80;;;10.77;;
22660;SDS011;11497;52.222;21.246;2022-08-03T06:13:02;13.88;;;11.38;;
22660;SDS011;11497;52.222;21.246;2022-08-03T06:15:30;14.15;;;11.48;;
22660;SDS011;11497;52.222;21.246;2022-08-03T06:18:00;14.00;;;12.05;;
22660;SDS011;11497;52.222;21.246;2022-08-03T06:20:28;16.40;;;11.80;;
22660;SDS011;11497;52.222;21.246;2022-08-03T06:22:56;13.40;;;11.95;;
22660;SDS011;11497;52.222;21.246;2022-08-03T06:25:26;16.88;;;12.50;;
22660;SDS011;11497;52.222;21.246;2022-08-03T06:27:54;15.93;;;13.40;;
22660;SDS011;11497;52.222;21.246;2022-08-03T06:30:22;20.05;;;13.10;;
22660;SDS011;11497;52.222;21.246;2022-08-03T06:32:51;15.75;;;13.50;;
22660;SDS011;11497;52.222;21.246;2022-08-03T06:35:18;15.18;;;13.57;;
22660;SDS011;11497;52.222;21.246;2022-08-03T06:37:47;15.15;;;13.35;;
22660;SDS011;11497;52.222;21.246;2022-08-03T06:40:17;16.50;;;13.25;;
22660;SDS011;11497;52.222;21.246;2022-08-03T06:42:49;15.10;;;13.23;;
22660;SDS011;11497;52.222;21.246;2022-08-03T06:45:17;21.88;;;14.00;;
22660;SDS011;11497;52.222;21.246;2022-08-03T06:47:45;15.18;;;13.20;;
22660;SDS011;11497;52.222;21.246;2022-08-03T06:50:13;16.70;;;13.48;;
22660;SDS011;11497;52.222;21.246;2022-08-03T06:52:43;17.85;;;13.30;;
22660;SDS011;11497;52.222;21.246;2022-08-03T06:55:11;16.08;;;13.48;;
22660;SDS011;11497;52.222;21.246;2022-08-03T06:57:39;15.15;;;13.73;;
22660;SDS011;11497;52.222;21.246;2022-08-03T07:00:07;15.02;;;13.50;;
22660;SDS011;11497;52.222;21.246;2022-08-03T07:02:38;15.98;;;14.10;;
22660;SDS011;11497;52.222;21.246;2022-08-03T07:05:07;16.52;;;13.63;;
22660;SDS011;11497;52.222;21.246;2022-08-03T07:07:35;14.85;;;13.38;;
22660;SDS011;11497;52.222;21.246;2022-08-03T07:10:04;15.38;;;13.77;;
22660;SDS011;11497;52.222;21.246;2022-08-03T07:12:32;18.90;;;13.85;;
22660;SDS011;11497;52.222;21.246;2022-08-03T07:15:01;15.70;;;14.00;;
22660;SDS011;11497;52.222;21.246;2022-08-03T07:17:30;15.93;;;14.30;;
22660;SDS011;11497;52.222;21.246;2022-08-03T07:20:00;15.93;;;14.20;;
22660;SDS011;11497;52.222;21.246;2022-08-03T07:22:30;16.05;;;14.27;;
22660;SDS011;11497;52.222;21.246;2022-08-03T07:24:58;16.48;;;14.40;;
22660;SDS011;11497;52.222;21.246;2022-08-03T07:27:27;16.95;;;14.35;;
22660;SDS011;11497;52.222;21.246;2022-08-03T07:29:56;17.17;;;14.63;;
22660;SDS011;11497;52.222;21.246;2022-08-03T07:32:24;19.35;;;14.90;;
22660;SDS011;11497;52.222;21.246;2022-08-03T07:34:52;18.27;;;15.52;;
22660;SDS011;11497;52.222;21.246;2022-08-03T07:39:55;18.48;;;14.68;;
22660;SDS011;11497;52.222;21.246;2022-08-03T07:42:24;15.63;;;14.02;;
22660;SDS011;11497;52.222;21.246;2022-08-03T07:44:55;17.77;;;15.65;;
22660;SDS011;11497;52.222;21.246;2022-08-03T07:47:25;16.45;;;14.70;;
22660;SDS011;11497;52.222;21.246;2022-08-03T07:50:02;16.48;;;14.45;;
22660;SDS011;11497;52.222;21.246;2022-08-03T07:52:34;15.20;;;13.67;;
22660;SDS011;11497;52.222;21.246;2022-08-03T07:58:04;20.08;;;15.48;;
22660;SDS011;11497;52.222;21.246;2022-08-03T08:00:38;18.05;;;14.88;;
22660;SDS011;11497;52.222;21.246;2022-08-03T08:03:06;18.63;;;15.98;;
22660;SDS011;11497;52.222;21.246;2022-08-03T08:05:33;17.73;;;15.40;;
22660;SDS011;11497;52.222;21.246;2022-08-03T08:08:02;20.13;;;14.80;;
22660;SDS011;11497;52.222;21.246;2022-08-03T08:10:30;18.30;;;15.00;;
22660;SDS011;11497;52.222;21.246;2022-08-03T08:12:58;19.75;;;15.27;;
22660;SDS011;11497;52.222;21.246;2022-08-03T08:15:27;19.92;;;14.95;;
22660;SDS011;11497;52.222;21.246;2022-08-03T08:17:56;17.65;;;14.93;;
22660;SDS011;11497;52.222;21.246;2022-08-03T08:20:28;14.93;;;13.25;;
22660;SDS011;11497;52.222;21.246;2022-08-03T08:23:05;18.95;;;13.93;;
22660;SDS011;11497;52.222;21.246;2022-08-03T08:25:54;15.27;;;13.63;;
22660;SDS011;11497;52.222;21.246;2022-08-03T08:28:22;19.92;;;13.93;;
22660;SDS011;11497;52.222;21.246;2022-08-03T08:30:58;16.00;;;12.68;;
22660;SDS011;11497;52.222;21.246;2022-08-03T08:33:27;13.55;;;12.15;;
22660;SDS011;11497;52.222;21.246;2022-08-03T08:36:13;15.18;;;13.40;;
22660;SDS011;11497;52.222;21.246;2022-08-03T08:38:41;14.15;;;12.48;;
22660;SDS011;11497;52.222;21.246;2022-08-03T08:41:11;13.48;;;12.02;;
22660;SDS011;11497;52.222;21.246;2022-08-03T08:43:40;13.85;;;11.30;;
22660;SDS011;11497;52.222;21.246;2022-08-03T08:46:10;18.15;;;11.00;;
22660;SDS011;11497;52.222;21.246;2022-08-03T08:48:50;12.02;;;10.88;;
22660;SDS011;11497;52.222;21.246;2022-08-03T08:51:20;14.93;;;9.93;;
22660;SDS011;11497;52.222;21.246;2022-08-03T08:53:48;15.10;;;8.43;;
22660;SDS011;11497;52.222;21.246;2022-08-03T08:56:19;10.43;;;9.50;;
22660;SDS011;11497;52.222;21.246;2022-08-03T08:58:54;11.15;;;9.13;;
22660;SDS011;11497;52.222;21.246;2022-08-03T09:01:24;16.33;;;8.30;;
22660;SDS011;11497;52.222;21.246;2022-08-03T09:03:53;8.63;;;7.70;;
22660;SDS011;11497;52.222;21.246;2022-08-03T09:06:21;8.02;;;7.30;;
22660;SDS011;11497;52.222;21.246;2022-08-03T09:08:49;10.80;;;8.45;;
22660;SDS011;11497;52.222;21.246;2022-08-03T09:11:21;8.85;;;7.95;;
22660;SDS011;11497;52.222;21.246;2022-08-03T09:14:09;9.10;;;7.00;;
22660;SDS011;11497;52.222;21.246;2022-08-03T09:16:58;9.57;;;6.40;;
22660;SDS011;11497;52.222;21.246;2022-08-03T09:19:31;8.65;;;6.00;;
22660;SDS011;11497;52.222;21.246;2022-08-03T09:24:55;8.23;;;6.32;;
22660;SDS011;11497;52.222;21.246;2022-08-03T09:27:45;8.77;;;5.63;;
22660;SDS011;11497;52.222;21.246;2022-08-03T09:30:14;7.85;;;5.25;;
22660;SDS011;11497;52.222;21.246;2022-08-03T09:33:03;8.90;;;4.32;;
22660;SDS011;11497;52.222;21.246;2022-08-03T09:35:44;8.15;;;4.38;;
22660;SDS011;11497;52.222;21.246;2022-08-03T09:38:23;6.90;;;4.60;;
22660;SDS011;11497;52.222;21.246;2022-08-03T09:40:54;9.02;;;4.55;;
22660;SDS011;11497;52.222;21.246;2022-08-03T09:43:26;7.63;;;4.45;;
22660;SDS011;11497;52.222;21.246;2022-08-03T09:46:11;9.32;;;4.93;;
22660;SDS011;11497;52.222;21.246;2022-08-03T09:48:38;7.70;;;5.60;;
22660;SDS011;11497;52.222;21.246;2022-08-03T09:51:07;5.95;;;5.03;;
22660;SDS011;11497;52.222;21.246;2022-08-03T09:53:55;7.43;;;5.32;;
22660;SDS011;11497;52.222;21.246;2022-08-03T09:56:43;10.57;;;6.75;;
22660;SDS011;11497;52.222;21.246;2022-08-03T09:59:13;9.93;;;6.18;;
22660;SDS011;11497;52.222;21.246;2022-08-03T10:01:57;8.77;;;6.43;;
22660;SDS011;11497;52.222;21.246;2022-08-03T10:04:26;8.13;;;6.53;;
22660;SDS011;11497;52.222;21.246;2022-08-03T10:07:07;8.82;;;5.95;;
22660;SDS011;11497;52.222;21.246;2022-08-03T10:09:36;6.65;;;6.00;;
22660;SDS011;11497;52.222;21.246;2022-08-03T10:12:18;10.38;;;6.55;;
22660;SDS011;11497;52.222;21.246;2022-08-03T10:14:46;9.50;;;6.95;;
22660;SDS011;11497;52.222;21.246;2022-08-03T10:17:14;8.48;;;6.05;;
22660;SDS011;11497;52.222;21.246;2022-08-03T10:19:42;7.05;;;6.38;;
22660;SDS011;11497;52.222;21.246;2022-08-03T10:22:15;7.63;;;6.82;;
22660;SDS011;11497;52.222;21.246;2022-08-03T10:24:52;9.98;;;6.45;;
22660;SDS011;11497;52.222;21.246;2022-08-03T10:27:25;8.30;;;6.75;;
22660;SDS011;11497;52.222;21.246;2022-08-03T10:29:59;9.93;;;6.50;;
22660;SDS011;11497;52.222;21.246;2022-08-03T10:32:33;28.27;;;7.85;;
22660;SDS011;11497;52.222;21.246;2022-08-03T10:35:15;9.98;;;6.30;;
22660;SDS011;11497;52.222;21.246;2022-08-03T10:40:23;6.93;;;6.30;;
22660;SDS011;11497;52.222;21.246;2022-08-03T10:43:16;7.75;;;6.28;;
22660;SDS011;11497;52.222;21.246;2022-08-03T10:45:51;7.95;;;6.60;;
22660;SDS011;11497;52.222;21.246;2022-08-03T10:48:20;7.63;;;5.78;;
22660;SDS011;11497;52.222;21.246;2022-08-03T10:50:48;6.60;;;6.00;;
22660;SDS011;11497;52.222;21.246;2022-08-03T10:53:32;7.53;;;6.82;;
22660;SDS011;11497;52.222;21.246;2022-08-03T10:56:05;9.27;;;6.07;;
22660;SDS011;11497;52.222;21.246;2022-08-03T11:02:17;7.57;;;6.78;;
22660;SDS011;11497;52.222;21.246;2022-08-03T11:04:44;11.65;;;7.00;;
22660;SDS011;11497;52.222;21.246;2022-08-03T11:09:51;8.82;;;6.22;;
22660;SDS011;11497;52.222;21.246;2022-08-03T11:15:06;7.78;;;6.13;;
22660;SDS011;11497;52.222;21.246;2022-08-03T11:17:35;8.93;;;6.20;;
22660;SDS011;11497;52.222;21.246;2022-08-03T11:23:09;9.32;;;6.90;;
22660;SDS011;11497;52.222;21.246;2022-08-03T11:28:36;6.78;;;6.00;;
22660;SDS011;11497;52.222;21.246;2022-08-03T11:34:17;10.50;;;6.85;;
22660;SDS011;11497;52.222;21.246;2022-08-03T11:39:58;10.27;;;6.57;;
22660;SDS011;11497;52.222;21.246;2022-08-03T11:44:59;7.22;;;6.55;;
22660;SDS011;11497;52.222;21.246;2022-08-03T11:47:28;6.82;;;6.20;;
22660;SDS011;11497;52.222;21.246;2022-08-03T11:49:57;7.65;;;6.43;;
22660;SDS011;11497;52.222;21.246;2022-08-03T11:52:37;7.15;;;6.45;;
22660;SDS011;11497;52.222;21.246;2022-08-03T11:55:09;9.13;;;6.28;;
22660;SDS011;11497;52.222;21.246;2022-08-03T11:57:38;10.48;;;6.28;;
22660;SDS011;11497;52.222;21.246;2022-08-03T12:00:30;7.80;;;6.32;;
22660;SDS011;11497;52.222;21.246;2022-08-03T12:02:59;7.32;;;6.18;;
22660;SDS011;11497;52.222;21.246;2022-08-03T12:05:50;7.72;;;6.28;;
22660;SDS011;11497;52.222;21.246;2022-08-03T12:13:23;7.82;;;6.88;;
22660;SDS011;11497;52.222;21.246;2022-08-03T12:16:21;8.63;;;6.30;;
22660;SDS011;11497;52.222;21.246;2022-08-03T12:18:53;8.02;;;6.35;;
22660;SDS011;11497;52.222;21.246;2022-08-03T12:21:21;10.60;;;6.30;;
22660;SDS011;11497;52.222;21.246;2022-08-03T12:23:56;7.18;;;5.90;;
22660;SDS011;11497;52.222;21.246;2022-08-03T12:26:26;9.20;;;6.15;;
22660;SDS011;11497;52.222;21.246;2022-08-03T12:28:55;7.78;;;6.05;;
22660;SDS011;11497;52.222;21.246;2022-08-03T12:31:23;7.47;;;6.18;;
22660;SDS011;11497;52.222;21.246;2022-08-03T12:34:04;7.00;;;5.68;;
22660;SDS011;11497;52.222;21.246;2022-08-03T12:36:34;8.93;;;6.55;;
22660;SDS011;11497;52.222;21.246;2022-08-03T12:39:05;6.43;;;5.93;;
22660;SDS011;11497;52.222;21.246;2022-08-03T12:41:35;10.18;;;6.80;;
22660;SDS011;11497;52.222;21.246;2022-08-03T12:44:05;10.63;;;6.28;;
22660;SDS011;11497;52.222;21.246;2022-08-03T12:46:35;7.32;;;5.93;;
22660;SDS011;11497;52.222;21.246;2022-08-03T12:49:13;8.07;;;6.38;;
22660;SDS011;11497;52.222;21.246;2022-08-03T12:54:22;8.90;;;6.57;;
22660;SDS011;11497;52.222;21.246;2022-08-03T12:57:03;7.00;;;6.22;;
22660;SDS011;11497;52.222;21.246;2022-08-03T12:59:33;7.40;;;6.70;;
22660;SDS011;11497;52.222;21.246;2022-08-03T13:02:19;9.07;;;6.22;;
22660;SDS011;11497;52.222;21.246;2022-08-03T13:04:49;7.57;;;6.03;;
22660;SDS011;11497;52.222;21.246;2022-08-03T13:07:19;8.15;;;6.97;;
22660;SDS011;11497;52.222;21.246;2022-08-03T13:09:52;10.88;;;6.53;;
22660;SDS011;11497;52.222;21.246;2022-08-03T13:12:22;9.38;;;5.97;;
22660;SDS011;11497;52.222;21.246;2022-08-03T13:14:57;8.57;;;6.63;;
22660;SDS011;11497;52.222;21.246;2022-08-03T13:17:26;17.70;;;6.65;;
22660;SDS011;11497;52.222;21.246;2022-08-03T13:19:54;8.20;;;6.30;;
22660;SDS011;11497;52.222;21.246;2022-08-03T13:22:23;6.70;;;6.10;;
22660;SDS011;11497;52.222;21.246;2022-08-03T13:24:54;9.10;;;6.47;;
22660;SDS011;11497;52.222;21.246;2022-08-03T13:27:23;7.15;;;6.18;;
22660;SDS011;11497;52.222;21.246;2022-08-03T13:30:11;7.72;;;6.45;;
22660;SDS011;11497;52.222;21.246;2022-08-03T13:32:55;7.82;;;6.70;;
22660;SDS011;11497;52.222;21.246;2022-08-03T13:35:24;10.18;;;6.30;;
22660;SDS011;11497;52.222;21.246;2022-08-03T13:37:52;10.35;;;6.72;;
22660;SDS011;11497;52.222;21.246;2022-08-03T13:40:20;12.60;;;7.07;;
22660;SDS011;11497;52.222;21.246;2022-08-03T13:42:55;7.68;;;6.43;;
22660;SDS011;11497;52.222;21.246;2022-08-03T13:45:23;9.38;;;6.57;;
22660;SDS011;11497;52.222;21.246;2022-08-03T13:47:53;8.95;;;6.50;;
22660;SDS011;11497;52.222;21.246;2022-08-03T13:50:20;8.32;;;6.43;;
22660;SDS011;11497;52.222;21.246;2022-08-03T13:52:48;8.15;;;6.55;;
22660;SDS011;11497;52.222;21.246;2022-08-03T13:55:16;8.68;;;6.65;;
22660;SDS011;11497;52.222;21.246;2022-08-03T13:57:44;10.45;;;6.72;;
22660;SDS011;11497;52.222;21.246;2022-08-03T14:00:31;7.70;;;7.00;;
22660;SDS011;11497;52.222;21.246;2022-08-03T14:02:59;9.57;;;6.97;;
22660;SDS011;11497;52.222;21.246;2022-08-03T14:05:38;10.10;;;7.00;;
22660;SDS011;11497;52.222;21.246;2022-08-03T14:08:07;7.20;;;6.50;;
22660;SDS011;11497;52.222;21.246;2022-08-03T14:10:36;10.27;;;7.10;;
22660;SDS011;11497;52.222;21.246;2022-08-03T14:13:07;7.40;;;6.70;;
22660;SDS011;11497;52.222;21.246;2022-08-03T14:15:36;7.32;;;6.60;;
22660;SDS011;11497;52.222;21.246;2022-08-03T14:18:05;9.00;;;6.90;;
22660;SDS011;11497;52.222;21.246;2022-08-03T14:20:42;7.70;;;6.90;;
22660;SDS011;11497;52.222;21.246;2022-08-03T14:23:16;9.65;;;6.57;;
22660;SDS011;11497;52.222;21.246;2022-08-03T14:25:44;9.68;;;7.15;;
22660;SDS011;11497;52.222;21.246;2022-08-03T14:28:21;9.85;;;7.15;;
22660;SDS011;11497;52.222;21.246;2022-08-03T14:30:50;7.82;;;6.95;;
22660;SDS011;11497;52.222;21.246;2022-08-03T14:33:19;8.63;;;7.10;;
22660;SDS011;11497;52.222;21.246;2022-08-03T14:35:48;11.80;;;7.10;;
22660;SDS011;11497;52.222;21.246;2022-08-03T14:38:16;11.55;;;7.88;;
22660;SDS011;11497;52.222;21.246;2022-08-03T14:40:44;12.13;;;7.38;;
22660;SDS011;11497;52.222;21.246;2022-08-03T14:43:12;7.57;;;6.88;;
22660;SDS011;11497;52.222;21.246;2022-08-03T14:45:41;10.77;;;6.95;;
22660;SDS011;11497;52.222;21.246;2022-08-03T14:48:08;12.23;;;7.28;;
22660;SDS011;11497;52.222;21.246;2022-08-03T14:50:58;10.73;;;7.45;;
22660;SDS011;11497;52.222;21.246;2022-08-03T14:53:25;11.43;;;7.30;;
22660;SDS011;11497;52.222;21.246;2022-08-03T14:55:54;10.90;;;8.13;;
22660;SDS011;11497;52.222;21.246;2022-08-03T14:58:23;10.88;;;7.40;;
22660;SDS011;11497;52.222;21.246;2022-08-03T15:00:52;7.65;;;6.85;;
22660;SDS011;11497;52.222;21.246;2022-08-03T15:03:21;8.20;;;6.97;;
22660;SDS011;11497;52.222;21.246;2022-08-03T15:05:51;11.20;;;7.32;;
22660;SDS011;11497;52.222;21.246;2022-08-03T15:08:21;7.68;;;6.97;;
22660;SDS011;11497;52.222;21.246;2022-08-03T15:10:50;8.48;;;6.75;;
22660;SDS011;11497;52.222;21.246;2022-08-03T15:13:19;7.95;;;7.22;;
22660;SDS011;11497;52.222;21.246;2022-08-03T15:15:47;10.00;;;6.80;;
22660;SDS011;11497;52.222;21.246;2022-08-03T15:18:15;7.55;;;6.82;;
22660;SDS011;11497;52.222;21.246;2022-08-03T15:20:43;10.23;;;7.28;;
22660;SDS011;11497;52.222;21.246;2022-08-03T15:23:13;9.65;;;6.90;;
22660;SDS011;11497;52.222;21.246;2022-08-03T15:25:42;14.35;;;7.75;;
22660;SDS011;11497;52.222;21.246;2022-08-03T15:28:30;8.07;;;7.22;;
22660;SDS011;11497;52.222;21.246;2022-08-03T15:30:59;10.30;;;7.15;;
22660;SDS011;11497;52.222;21.246;2022-08-03T15:33:27;10.77;;;7.38;;
22660;SDS011;11497;52.222;21.246;2022-08-03T15:35:56;12.77;;;7.22;;
22660;SDS011;11497;52.222;21.246;2022-08-03T15:38:25;8.30;;;7.43;;
22660;SDS011;11497;52.222;21.246;2022-08-03T15:40:53;9.70;;;7.43;;
22660;SDS011;11497;52.222;21.246;2022-08-03T15:43:22;9.13;;;7.45;;
22660;SDS011;11497;52.222;21.246;2022-08-03T15:45:49;8.02;;;7.22;;
22660;SDS011;11497;52.222;21.246;2022-08-03T15:48:38;8.75;;;7.20;;
22660;SDS011;11497;52.222;21.246;2022-08-03T15:51:08;8.65;;;7.72;;
22660;SDS011;11497;52.222;21.246;2022-08-03T15:53:36;10.60;;;7.80;;
22660;SDS011;11497;52.222;21.246;2022-08-03T15:56:04;9.52;;;7.88;;